Time;durP1;ratioP1;P1;durP2;ratioP2;P2;SDS_P1;SDS_P2;PMS_P1;PMS_P2;Temp;Humidity;BMP_temperature;BMP_pressure;BME280_temperature;BME280_humidity;BME280_pressure;Samples;Min_cycle;Max_cycle;Signal;HPM_P1;HPM_P2
2022/06/13 00:01:50;;;;;;;10.60;7.78;;;;;;;21.78;63.30;153130.03;1653356;86;21486;-57
2022/06/13 00:04:17;;;;;;;9.88;7.67;;;;;;;21.78;63.61;153128.75;1653237;86;21882;-58
2022/06/13 00:06:46;;;;;;;9.95;7.37;;;;;;;21.75;64.03;153123.47;1653129;85;20996;-58
2022/06/13 00:09:15;;;;;;;10.23;7.62;;;;;;;21.70;64.40;153109.13;1653413;85;21088;-57
2022/06/13 00:11:42;;;;;;;13.28;7.97;;;;;;;21.67;64.55;153102.56;1653324;86;21442;-56
2022/06/13 00:14:09;;;;;;;10.13;7.67;;;;;;;21.67;64.34;153102.56;1653395;86;21021;-57
2022/06/13 00:16:38;;;;;;;10.32;7.70;;;;;;;21.68;64.31;153105.19;1643603;86;21060;-58
2022/06/13 00:19:06;;;;;;;10.80;7.35;;;;;;;21.68;64.20;153105.19;1677334;85;21064;-57
2022/06/13 00:21:35;;;;;;;9.53;7.50;;;;;;;21.69;64.20;153107.80;1676668;85;21013;-57
2022/06/13 00:24:04;;;;;;;14.05;8.00;;;;;;;21.68;64.21;153105.19;1676775;85;21033;-57
2022/06/13 00:26:34;;;;;;;9.08;7.85;;;;;;;21.66;64.12;153099.95;1676761;85;21083;-57
2022/06/13 00:29:01;;;;;;;12.85;8.53;;;;;;;21.65;64.15;153097.34;1676394;85;20953;-56
2022/06/13 00:31:29;;;;;;;12.15;8.23;;;;;;;21.65;64.16;153097.34;1676247;85;21080;-56
2022/06/13 00:33:56;;;;;;;11.43;8.60;;;;;;;21.68;64.09;153105.19;1676412;84;21558;-58
2022/06/13 00:36:25;;;;;;;12.23;8.45;;;;;;;21.73;63.86;153116.97;1676349;84;21108;-57
2022/06/13 00:38:55;;;;;;;11.25;7.95;;;;;;;21.74;63.75;153120.86;1676623;84;21116;-57
2022/06/13 00:41:25;;;;;;;15.28;7.97;;;;;;;21.77;63.79;153126.08;1676726;85;21528;-57
2022/06/13 00:43:52;;;;;;;12.60;8.70;;;;;;;21.79;63.77;153131.36;1676755;85;21550;-57
2022/06/13 00:46:27;;;;;;;10.98;7.97;;;;;;;21.80;63.83;153133.97;1676554;85;21104;-57
2022/06/13 00:49:04;;;;;;;12.60;8.13;;;;;;;21.80;63.83;153133.97;1676795;84;21120;-57
2022/06/13 00:51:32;;;;;;;11.95;8.13;;;;;;;21.82;63.83;153139.19;1676953;85;21029;-56
2022/06/13 00:53:59;;;;;;;9.05;7.65;;;;;;;21.83;63.53;153141.81;1676775;84;21604;-57
2022/06/13 00:56:27;;;;;;;11.53;8.00;;;;;;;21.80;63.52;153133.97;1676454;85;21096;-57
2022/06/13 00:58:57;;;;;;;12.23;8.73;;;;;;;21.78;63.67;153128.75;1676746;85;21442;-57
2022/06/13 01:01:24;;;;;;;10.90;7.95;;;;;;;21.75;63.72;153123.47;1676550;85;21061;-57
2022/06/13 01:03:52;;;;;;;14.33;8.85;;;;;;;21.75;63.86;153123.47;1676795;85;21434;-57
2022/06/13 01:06:19;;;;;;;10.15;8.15;;;;;;;21.74;63.94;153120.86;1677048;84;22148;-59
2022/06/13 01:08:47;;;;;;;11.70;8.70;;;;;;;21.73;64.16;153116.97;1681183;84;21474;-57
2022/06/13 01:11:18;;;;;;;14.75;8.98;;;;;;;21.71;64.37;153111.73;1681031;84;21478;-57
2022/06/13 01:14:13;;;;;;;13.38;7.85;;;;;;;21.71;64.51;153113.02;1681042;83;21060;-57
2022/06/13 01:17:25;;;;;;;11.30;7.92;;;;;;;21.70;64.72;153109.13;1681072;84;21091;-58
2022/06/13 01:20:27;;;;;;;13.28;7.97;;;;;;;21.66;65.17;153098.63;1671049;84;22787;-56
2022/06/13 01:23:11;;;;;;;16.00;8.28;;;;;;;21.64;65.57;153094.69;1681178;83;21506;-57
2022/06/13 01:26:16;;;;;;;10.85;7.70;;;;;;;21.64;65.88;153094.69;1681439;85;20969;-56
2022/06/13 01:29:00;;;;;;;10.35;8.05;;;;;;;21.62;66.12;153089.45;1681367;84;20968;-57
2022/06/13 01:31:41;;;;;;;10.80;8.45;;;;;;;21.59;66.36;153082.91;1680834;85;21108;-57
2022/06/13 01:34:41;;;;;;;14.18;8.60;;;;;;;21.60;66.41;153084.23;1681117;84;21016;-57
2022/06/13 01:37:35;;;;;;;12.78;8.65;;;;;;;21.61;66.37;153086.84;1681071;84;21061;-57
2022/06/13 01:40:19;;;;;;;14.58;8.78;;;;;;;21.59;66.50;153081.63;1681333;85;21462;-58
2022/06/13 01:43:16;;;;;;;12.82;8.28;;;;;;;21.56;66.64;153073.78;1681197;84;21540;-57
2022/06/13 01:45:48;;;;;;;9.68;8.18;;;;;;;21.54;66.78;153069.84;1680440;85;21052;-57
2022/06/13 01:48:57;;;;;;;16.97;9.10;;;;;;;21.54;66.83;153068.50;1681362;85;21123;-57
2022/06/13 01:51:49;;;;;;;13.08;8.20;;;;;;;21.53;66.85;153065.91;1681180;83;21573;-57
2022/06/13 01:54:43;;;;;;;13.08;8.45;;;;;;;21.48;67.03;153054.17;1681243;84;21048;-57
2022/06/13 01:57:21;;;;;;;9.60;7.72;;;;;;;21.45;67.22;153047.61;1681160;84;20969;-56
2022/06/13 02:00:12;;;;;;;11.38;7.97;;;;;;;21.45;67.40;153046.33;1681493;85;21063;-58
2022/06/13 02:03:00;;;;;;;13.13;8.40;;;;;;;21.46;67.40;153050.22;1681207;85;22182;-57
2022/06/13 02:05:44;;;;;;;12.13;8.23;;;;;;;21.49;67.56;153055.45;1681128;84;21048;-57
2022/06/13 02:08:25;;;;;;;14.93;8.30;;;;;;;21.46;67.91;153048.94;1681819;84;21060;-57
2022/06/13 02:11:04;;;;;;;14.30;8.08;;;;;;;21.44;68.23;153045.00;1682194;85;21005;-57
2022/06/13 02:13:52;;;;;;;14.00;8.00;;;;;;;21.45;68.42;153047.61;1682118;85;21068;-57
2022/06/13 02:16:36;;;;;;;13.00;8.10;;;;;;;21.44;68.61;153043.67;1682231;83;21549;-56
2022/06/13 02:19:09;;;;;;;11.68;7.87;;;;;;;21.46;68.72;153050.22;1660906;85;21327;-57
2022/06/13 02:21:57;;;;;;;10.40;7.85;;;;;;;21.47;68.68;153052.83;1681963;83;21072;-56
2022/06/13 02:24:30;;;;;;;9.18;7.28;;;;;;;21.51;68.59;153060.67;1681999;84;21009;-56
2022/06/13 02:26:58;;;;;;;11.22;7.62;;;;;;;21.56;68.68;153073.78;1682154;83;21223;-57
2022/06/13 02:29:32;;;;;;;11.85;7.75;;;;;;;21.64;68.33;153094.69;1681981;83;21281;-57
2022/06/13 02:32:09;;;;;;;8.33;6.92;;;;;;;21.69;68.24;153107.80;1662139;85;21080;-57
2022/06/13 02:34:53;;;;;;;9.30;7.42;;;;;;;21.73;68.07;153118.25;1681934;85;21081;-57
2022/06/13 02:37:35;;;;;;;8.77;7.47;;;;;;;21.77;67.97;153126.08;1682242;85;21068;-56
2022/06/13 02:40:13;;;;;;;10.05;6.12;;;;;;;21.80;67.80;153133.97;1682133;85;21068;-57
2022/06/13 02:42:49;;;;;;;10.15;7.03;;;;;;;21.82;67.74;153139.19;1681471;85;21529;-56
2022/06/13 02:45:38;;;;;;;8.90;6.75;;;;;;;21.85;67.76;153147.03;1648005;85;21530;-58
2022/06/13 02:48:22;;;;;;;9.90;7.22;;;;;;;21.89;67.56;153158.81;1620866;87;20986;-57
2022/06/13 02:50:58;;;;;;;12.03;7.12;;;;;;;21.88;67.35;153156.20;1620727;86;21045;-57
2022/06/13 02:53:51;;;;;;;10.23;7.58;;;;;;;21.91;67.24;153162.72;1620940;88;21136;-57
2022/06/13 02:56:30;;;;;;;12.80;7.42;;;;;;;21.92;67.23;153165.31;1621024;88;22139;-58
2022/06/13 02:59:23;;;;;;;11.18;7.80;;;;;;;21.96;67.25;153175.78;1620794;88;21454;-57
2022/06/13 03:01:50;;;;;;;9.73;7.40;;;;;;;21.96;67.26;153175.78;1620842;88;21486;-58
2022/06/13 03:04:32;;;;;;;10.35;7.05;;;;;;;21.98;67.27;153179.72;1620831;88;21076;-58
2022/06/13 03:07:22;;;;;;;13.88;7.35;;;;;;;22.00;67.26;153186.28;1620861;88;21050;-58
2022/06/13 03:09:58;;;;;;;9.93;7.17;;;;;;;22.06;67.30;153199.34;1687647;84;21235;-59
2022/06/13 03:12:46;;;;;;;9.68;6.47;;;;;;;22.12;67.03;153215.02;1686542;83;21052;-59
2022/06/13 03:15:22;;;;;;;12.15;6.90;;;;;;;22.17;66.88;153228.09;1686640;84;21004;-59
2022/06/13 03:18:12;;;;;;;8.18;6.50;;;;;;;22.25;66.56;153249.03;1686899;85;21080;-59
2022/06/13 03:20:49;;;;;;;8.08;6.17;;;;;;;22.28;66.35;153256.87;1686459;84;21029;-58
2022/06/13 03:23:21;;;;;;;8.38;6.78;;;;;;;;;;1686452;85;21198;-58
2022/06/13 03:25:57;;;;;;;12.68;7.05;;;;;;;22.40;66.13;153286.97;1671272;85;21599;-58
2022/06/13 03:28:44;;;;;;;9.78;6.72;;;;;;;22.43;66.10;153293.47;1686590;85;21508;-57
2022/06/13 03:31:21;;;;;;;12.82;6.50;;;;;;;22.50;65.91;153311.88;1686526;84;21445;-59
2022/06/13 03:33:52;;;;;;;11.43;6.47;;;;;;;22.55;65.58;153324.94;1686475;84;21493;-58
2022/06/13 03:36:28;;;;;;;7.58;6.78;;;;;;;22.59;65.46;153334.11;1686501;85;21014;-64
2022/06/13 03:39:03;;;;;;;8.90;6.50;;;;;;;22.65;65.34;153348.47;1686761;85;20937;-64
2022/06/13 03:41:35;;;;;;;8.48;6.12;;;;;;;22.73;65.24;153369.42;1686332;84;21098;-63
2022/06/13 03:44:16;;;;;;;9.70;6.47;;;;;;;22.81;64.74;153390.34;1686773;84;21028;-63
2022/06/13 03:47:09;;;;;;;10.95;6.40;;;;;;;22.84;64.62;153398.19;1684259;83;21313;-64
2022/06/13 03:49:44;;;;;;;7.37;6.12;;;;;;;22.89;64.60;153411.30;1639381;87;21900;-64
2022/06/13 03:52:12;;;;;;;9.00;6.60;;;;;;;23.01;63.96;153440.06;1639959;86;21561;-64
2022/06/13 03:54:48;;;;;;;11.45;6.62;;;;;;;23.12;63.80;153467.53;1660723;83;21116;-64
2022/06/13 03:57:26;;;;;;;9.63;6.47;;;;;;;23.21;63.68;153489.78;1686456;84;20968;-64
2022/06/13 04:00:11;;;;;;;8.70;5.75;;;;;;;23.29;63.34;153510.77;1685614;83;21108;-63
2022/06/13 04:02:40;;;;;;;8.13;5.90;;;;;;;23.37;63.13;153531.73;1686699;83;21518;-63
2022/06/13 04:05:18;;;;;;;7.55;6.12;;;;;;;23.46;63.04;153555.27;1686463;84;21107;-64
2022/06/13 04:07:47;;;;;;;7.83;5.72;;;;;;;23.50;62.53;153564.44;1686001;83;21036;-63
2022/06/13 04:10:15;;;;;;;8.80;5.92;;;;;;;23.54;62.62;153573.56;1686191;84;21037;-64
2022/06/13 04:13:22;;;;;;;9.38;6.30;;;;;;;23.56;62.57;153578.86;1686244;83;21119;-64
2022/06/13 04:15:56;;;;;;;6.58;5.83;;;;;;;23.58;62.64;153584.09;1686230;85;21503;-64
2022/06/13 04:18:53;;;;;;;7.58;5.40;;;;;;;23.60;62.18;153589.31;1686117;85;21079;-63
2022/06/13 04:22:05;;;;;;;6.87;5.87;;;;;;;23.62;62.14;153594.55;1667616;84;21538;-63
2022/06/13 04:24:46;;;;;;;7.33;6.42;;;;;;;23.64;62.17;153598.44;1686314;83;21445;-63
2022/06/13 04:27:22;;;;;;;8.90;6.03;;;;;;;23.69;62.55;153612.86;1686329;83;21569;-63
2022/06/13 04:29:58;;;;;;;6.25;5.65;;;;;;;23.75;62.17;153627.27;1686011;85;21075;-63
2022/06/13 04:32:33;;;;;;;6.60;5.62;;;;;;;23.86;62.05;153654.75;1686326;85;21017;-63
2022/06/13 04:35:00;;;;;;;8.55;5.80;;;;;;;23.96;61.58;153680.92;1685152;85;21481;-63
2022/06/13 04:37:27;;;;;;;8.60;6.53;;;;;;;24.06;61.12;153704.56;1686207;85;21115;-63
2022/06/13 04:39:59;;;;;;;9.23;6.30;;;;;;;24.12;61.20;153720.25;1686269;83;21048;-63
2022/06/13 04:42:29;;;;;;;10.30;6.60;;;;;;;24.24;60.93;153750.38;1686307;85;21627;-64
2022/06/13 04:45:00;;;;;;;9.65;6.30;;;;;;;24.35;60.44;153779.20;1686069;83;21052;-63
2022/06/13 04:47:27;;;;;;;8.70;6.28;;;;;;;24.42;60.04;153796.19;1686621;83;21083;-64
2022/06/13 04:49:57;;;;;;;9.63;6.00;;;;;;;24.50;59.93;153815.84;1686238;83;21593;-64
2022/06/13 04:52:33;;;;;;;9.60;6.20;;;;;;;24.60;59.81;153843.34;1686257;83;21048;-64
2022/06/13 04:55:08;;;;;;;9.15;6.50;;;;;;;24.74;59.48;153877.42;1686327;85;21956;-64
2022/06/13 04:57:36;;;;;;;8.38;6.78;;;;;;;24.84;59.33;153902.36;1686269;85;21029;-64
2022/06/13 05:00:10;;;;;;;11.50;6.42;;;;;;;24.92;58.70;153922.02;1686538;84;21111;-64
2022/06/13 05:02:51;;;;;;;8.55;6.15;;;;;;;24.93;58.72;153924.63;1686580;85;21052;-65
2022/06/13 05:05:36;;;;;;;8.20;5.80;;;;;;;24.96;58.72;153933.77;1686312;85;21048;-64
2022/06/13 05:08:15;;;;;;;9.03;6.62;;;;;;;25.06;58.57;153958.66;1687974;84;21514;-64
2022/06/13 05:10:42;;;;;;;7.05;5.85;;;;;;;25.16;57.86;153984.88;1687641;84;21483;-64
2022/06/13 05:13:11;;;;;;;8.63;6.70;;;;;;;25.16;57.80;153984.88;1691771;83;21020;-64
2022/06/13 05:15:38;;;;;;;11.40;7.08;;;;;;;25.22;57.80;153997.97;1691619;83;21071;-64
2022/06/13 05:18:26;;;;;;;10.43;6.22;;;;;;;25.32;57.83;154024.20;1691656;84;21061;-63
2022/06/13 05:21:07;;;;;;;10.45;6.67;;;;;;;25.45;57.63;154056.95;1691543;83;21529;-63
2022/06/13 05:24:15;;;;;;;8.00;6.10;;;;;;;25.58;57.29;154089.77;1691677;83;21036;-63
2022/06/13 05:26:42;;;;;;;10.32;6.15;;;;;;;25.74;56.95;154130.38;1690362;83;21063;-63
2022/06/13 05:29:10;;;;;;;11.18;6.80;;;;;;;25.90;56.48;154171.00;1663025;84;21059;-64
2022/06/13 05:31:37;;;;;;;11.70;7.12;;;;;;;26.09;56.35;154218.19;1691239;83;21658;-63
2022/06/13 05:34:05;;;;;;;11.15;7.10;;;;;;;26.24;56.26;154257.58;1697121;83;21497;-64
2022/06/13 05:36:32;;;;;;;8.70;6.72;;;;;;;26.36;55.95;154286.39;1706774;83;20981;-64
2022/06/13 05:39:02;;;;;;;10.28;7.62;;;;;;;26.48;55.33;154317.87;1692063;83;21080;-63
2022/06/13 05:41:29;;;;;;;10.38;7.40;;;;;;;26.55;54.62;154334.94;1700701;83;21045;-64
2022/06/13 05:43:56;;;;;;;9.35;7.03;;;;;;;26.62;54.51;154351.94;1658955;86;21028;-63
2022/06/13 05:46:29;;;;;;;14.98;8.03;;;;;;;26.70;53.92;154374.23;1659811;84;22149;-64
2022/06/13 05:48:57;;;;;;;9.33;6.95;;;;;;;26.81;54.13;154401.77;1660709;84;21185;-64
2022/06/13 05:51:25;;;;;;;10.65;7.22;;;;;;;26.93;53.32;154431.98;1659909;84;21151;-64
2022/06/13 05:53:55;;;;;;;9.15;6.83;;;;;;;26.97;52.89;154441.19;1706248;83;21075;-63
2022/06/13 05:56:24;;;;;;;12.05;6.87;;;;;;;26.99;52.63;154447.75;1692034;83;20933;-63
2022/06/13 05:58:52;;;;;;;12.00;6.75;;;;;;;26.99;52.64;154447.75;1687960;83;21722;-63
2022/06/13 06:01:19;;;;;;;11.35;6.35;;;;;;;27.03;52.46;154456.91;1684007;83;21042;-63
2022/06/13 06:03:47;;;;;;;11.83;7.15;;;;;;;27.05;52.05;154462.14;1696094;83;21032;-63
2022/06/13 06:06:23;;;;;;;9.13;6.65;;;;;;;27.09;51.90;154471.34;1662965;85;21458;-63
2022/06/13 06:08:50;;;;;;;7.92;6.15;;;;;;;27.16;51.30;154489.69;1660879;86;21033;-64
2022/06/13 06:11:17;;;;;;;11.70;6.10;;;;;;;27.22;50.47;154504.13;1684467;83;21262;-64
2022/06/13 06:13:44;;;;;;;8.33;6.12;;;;;;;27.17;49.99;154493.64;1706885;83;21558;-63
2022/06/13 06:16:15;;;;;;;7.58;5.70;;;;;;;27.17;49.57;154493.64;1659981;85;21442;-63
2022/06/13 06:18:42;;;;;;;11.30;5.87;;;;;;;27.26;49.16;154514.61;1663988;86;21605;-63
2022/06/13 06:21:09;;;;;;;11.55;5.80;;;;;;;27.30;49.15;154525.09;1671168;85;21000;-63
2022/06/13 06:23:37;;;;;;;7.87;5.83;;;;;;;27.37;48.76;154543.50;1643377;85;21239;-62
2022/06/13 06:26:05;;;;;;;8.33;5.55;;;;;;;27.46;48.89;154565.80;1646512;85;21589;-63
2022/06/13 06:28:32;;;;;;;11.60;5.65;;;;;;;27.70;49.36;154627.47;1660240;85;21047;-63
2022/06/13 06:31:01;;;;;;;8.60;5.60;;;;;;;27.94;48.81;154687.83;1678745;85;21013;-63
2022/06/13 06:33:28;;;;;;;6.42;4.85;;;;;;;28.14;48.89;154737.69;1658834;86;21445;-64
2022/06/13 06:35:57;;;;;;;10.48;5.20;;;;;;;28.34;48.72;154788.95;1648792;85;21209;-63
2022/06/13 06:38:25;;;;;;;5.87;5.15;;;;;;;28.48;48.04;154824.39;1655579;86;21139;-63
2022/06/13 06:40:52;;;;;;;8.75;5.33;;;;;;;28.60;47.15;154855.86;1645196;85;21060;-63
2022/06/13 06:43:19;;;;;;;8.28;4.90;;;;;;;28.76;47.38;154895.25;1689834;83;21539;-63
2022/06/13 06:45:47;;;;;;;8.25;5.33;;;;;;;28.92;47.63;154934.70;1647500;85;21076;-63
2022/06/13 06:48:18;;;;;;;9.70;5.20;;;;;;;29.06;46.92;154970.14;1649331;86;21248;-64
2022/06/13 06:50:46;;;;;;;10.20;4.83;;;;;;;29.13;46.58;154989.84;1661974;85;21241;-64
2022/06/13 06:53:13;;;;;;;8.53;5.17;;;;;;;29.21;45.93;155009.55;1644586;87;20981;-64
2022/06/13 07:00:58;;;;;;;7.47;4.70;;;;;;;29.54;44.91;155093.61;1578905;85;21930;-62
2022/06/13 07:03:25;;;;;;;9.08;4.75;;;;;;;29.58;42.88;155102.83;1689753;83;21039;-64
2022/06/13 07:05:53;;;;;;;9.78;4.85;;;;;;;29.47;42.62;155073.91;1694430;83;21004;-64
2022/06/13 07:08:21;;;;;;;7.87;4.90;;;;;;;29.31;42.70;155034.50;1656627;84;21004;-64
2022/06/13 07:10:49;;;;;;;7.58;4.10;;;;;;;29.27;42.99;155025.28;1675217;83;21506;-63
2022/06/13 07:13:18;;;;;;;6.37;4.15;;;;;;;29.42;43.44;155063.41;1674689;84;21257;-64
2022/06/13 07:15:48;;;;;;;8.28;5.35;;;;;;;29.67;43.99;155126.44;1670937;84;22380;-64
2022/06/13 07:18:15;;;;;;;7.83;4.53;;;;;;;29.78;43.74;155152.73;1648493;85;20985;-63
2022/06/13 07:20:44;;;;;;;6.33;4.60;;;;;;;29.82;44.39;155163.23;1640054;85;21494;-64
2022/06/13 07:23:11;;;;;;;7.75;4.40;;;;;;;29.90;44.02;155184.23;1644542;86;21060;-65
2022/06/13 07:25:39;;;;;;;4.97;4.25;;;;;;;30.04;43.40;155218.45;1675162;83;21174;-65
2022/06/13 07:28:08;;;;;;;6.78;4.12;;;;;;;30.12;42.01;155239.45;1676210;83;21058;-64
2022/06/13 07:30:36;;;;;;;7.62;4.55;;;;;;;30.03;41.63;155215.83;1678484;83;20972;-64
2022/06/13 07:33:04;;;;;;;9.23;4.72;;;;;;;29.95;41.96;155197.36;1675360;83;21107;-64
2022/06/13 07:35:32;;;;;;;6.72;4.42;;;;;;;30.01;42.25;155213.20;1640912;85;21083;-64
2022/06/13 07:38:16;;;;;;;9.50;5.17;;;;;;;30.15;42.72;155248.67;1640463;86;20958;-64
2022/06/13 07:40:53;;;;;;;6.08;5.00;;;;;;;30.12;43.08;155239.45;1682811;83;21507;-65
2022/06/13 07:43:31;;;;;;;9.50;5.50;;;;;;;30.05;43.09;155221.08;1688269;84;21045;-64
2022/06/13 07:45:59;;;;;;;5.92;5.33;;;;;;;29.88;43.35;155178.98;1684237;83;21439;-64
2022/06/13 07:48:27;;;;;;;6.00;5.12;;;;;;;29.81;44.02;155160.61;1695454;84;21013;-64
2022/06/13 07:50:56;;;;;;;6.67;4.95;;;;;;;29.84;44.32;155169.83;1680215;83;21235;-65
2022/06/13 07:53:23;;;;;;;7.50;5.22;;;;;;;29.86;44.55;155173.73;1697613;84;21069;-64
2022/06/13 07:55:50;;;;;;;7.62;5.70;;;;;;;29.91;45.29;155185.56;1694221;84;21609;-64
2022/06/13 07:58:27;;;;;;;6.05;5.37;;;;;;;29.91;45.19;155186.86;1673380;84;21005;-65
2022/06/13 08:00:54;;;;;;;6.37;5.47;;;;;;;29.86;45.03;155175.08;1683516;83;21069;-64
2022/06/13 08:03:28;;;;;;;5.97;4.95;;;;;;;29.90;44.89;155184.23;1635156;86;21297;-64
2022/06/13 08:05:57;;;;;;;7.37;5.12;;;;;;;30.03;44.42;155215.83;1646806;87;21013;-64
2022/06/13 08:08:24;;;;;;;9.35;5.17;;;;;;;30.06;44.01;155223.70;1650507;84;21696;-63
2022/06/13 08:10:51;;;;;;;7.97;5.20;;;;;;;30.01;44.32;155213.20;1669455;85;21022;-64
2022/06/13 08:13:19;;;;;;;6.12;5.28;;;;;;;30.02;44.70;155214.50;1672399;84;21465;-64
2022/06/13 08:15:47;;;;;;;6.75;5.20;;;;;;;30.02;44.77;155214.50;1672055;84;21274;-64
2022/06/13 08:18:14;;;;;;;6.58;5.33;;;;;;;29.93;44.82;155192.11;1669610;86;21018;-64
2022/06/13 08:20:42;;;;;;;8.80;5.53;;;;;;;29.82;45.08;155163.23;1671571;84;21483;-64
2022/06/13 08:23:11;;;;;;;8.00;5.87;;;;;;;29.74;45.31;155143.53;1671241;84;20985;-64
2022/06/13 08:25:39;;;;;;;6.67;5.10;;;;;;;29.71;46.46;155136.94;1638280;86;21058;-65
2022/06/13 08:28:06;;;;;;;5.47;4.97;;;;;;;29.69;47.01;155130.41;1671362;84;21248;-65
2022/06/13 08:30:47;;;;;;;9.05;5.10;;;;;;;29.69;46.72;155131.69;1669395;85;21005;-64
2022/06/13 08:33:14;;;;;;;7.20;5.20;;;;;;;29.77;46.39;155150.11;1669555;86;21061;-64
2022/06/13 08:35:43;;;;;;;8.33;5.42;;;;;;;29.81;46.57;155160.61;1673896;84;21557;-64
2022/06/13 08:38:10;;;;;;;8.55;5.03;;;;;;;29.85;47.03;155171.11;1671982;85;21013;-64
2022/06/13 08:40:58;;;;;;;14.93;5.83;;;;;;;29.86;47.13;155175.08;1643144;86;21300;-64
2022/06/13 08:44:02;;;;;;;9.08;5.17;;;;;;;29.93;46.67;155192.11;1675961;83;21000;-64
2022/06/13 08:47:02;;;;;;;5.90;5.15;;;;;;;29.94;46.82;155194.73;1664275;85;21574;-64
2022/06/13 08:49:44;;;;;;;9.05;5.20;;;;;;;30.06;46.65;155223.70;1667894;84;21056;-64
2022/06/13 08:52:26;;;;;;;7.13;4.43;;;;;;;30.16;46.54;155249.95;1681071;83;20969;-65
2022/06/13 08:55:13;;;;;;;5.58;4.50;;;;;;;30.20;45.50;155260.50;1688142;83;21249;-65
2022/06/13 08:57:46;;;;;;;6.72;4.80;;;;;;;30.10;45.71;155234.20;1683604;84;21702;-64
2022/06/13 09:00:20;;;;;;;8.20;5.20;;;;;;;30.02;45.64;155214.50;1674693;84;21002;-64
2022/06/13 09:03:00;;;;;;;6.80;4.72;;;;;;;29.94;45.49;155194.73;1642352;85;21055;-65
2022/06/13 09:05:37;;;;;;;7.35;4.50;;;;;;;29.95;45.37;155197.36;1648323;86;21565;-65
2022/06/13 09:08:18;;;;;;;5.03;4.53;;;;;;;30.05;45.29;155221.08;1685736;84;21233;-65
2022/06/13 09:11:03;;;;;;;7.03;4.90;;;;;;;30.18;45.05;155255.25;1691868;84;21054;-65
2022/06/13 09:13:55;;;;;;;7.00;4.90;;;;;;;30.25;43.99;155273.63;1685748;83;21053;-65
2022/06/13 09:16:32;;;;;;;8.25;4.92;;;;;;;30.27;43.87;155278.88;1680106;84;21086;-64
2022/06/13 09:19:22;;;;;;;7.42;4.67;;;;;;;30.19;43.77;155256.53;1681311;84;21072;-64
2022/06/13 09:22:06;;;;;;;7.55;4.30;;;;;;;30.11;44.10;155236.83;1629483;85;20999;-65
2022/06/13 09:25:02;;;;;;;6.47;4.70;;;;;;;30.10;44.13;155234.20;1673056;83;21010;-64
2022/06/13 09:27:34;;;;;;;6.40;4.78;;;;;;;30.07;44.43;155226.33;1637546;85;21117;-64
2022/06/13 09:30:15;;;;;;;5.55;4.75;;;;;;;30.12;44.59;155239.45;1666693;84;21017;-64
2022/06/13 09:32:55;;;;;;;5.22;4.55;;;;;;;30.23;44.44;155267.05;1674497;84;21544;-64
2022/06/13 09:35:32;;;;;;;5.70;4.62;;;;;;;30.34;43.90;155295.97;1674014;84;21140;-64
2022/06/13 09:38:23;;;;;;;5.30;4.80;;;;;;;30.34;43.50;155295.97;1669959;84;21041;-64
2022/06/13 09:41:04;;;;;;;5.90;4.85;;;;;;;30.25;43.80;155272.30;1658058;83;20959;-64
2022/06/13 09:44:32;;;;;;;7.85;4.28;;;;;;;30.27;44.17;155277.55;1686766;83;20969;-64
2022/06/13 09:47:14;;;;;;;5.22;4.62;;;;;;;30.33;43.88;155292.00;1685126;84;21147;-65
2022/06/13 09:50:00;;;;;;;6.37;4.75;;;;;;;30.50;44.13;155335.34;1642278;85;21447;-64
2022/06/13 09:52:44;;;;;;;8.45;4.37;;;;;;;30.56;43.36;155352.44;1634039;85;25063;-64
2022/06/13 09:55:21;;;;;;;;;;;;;;;30.51;43.23;155339.31;1636194;86;21021;-64
2022/06/13 09:58:13;;;;;;;7.92;4.70;;;;;;;30.43;43.01;155318.31;1676238;83;20216;-64
2022/06/13 10:01:07;;;;;;;5.87;4.58;;;;;;;30.30;42.79;155285.47;1673222;85;21003;-63
2022/06/13 10:03:45;;;;;;;8.00;4.80;;;;;;;30.21;43.02;155263.13;1637481;85;21271;-64
2022/06/13 10:06:38;;;;;;;6.83;4.22;;;;;;;30.19;43.12;155256.53;1650656;85;20950;-63
2022/06/13 10:09:46;;;;;;;10.00;4.78;;;;;;;30.25;43.09;155272.30;1618290;86;21059;-65
2022/06/13 10:12:31;;;;;;;4.70;4.10;;;;;;;30.25;43.04;155272.30;1678431;84;21045;-65
2022/06/13 10:15:23;;;;;;;7.53;4.28;;;;;;;30.30;42.94;155286.75;1661051;84;21090;-64
2022/06/13 10:18:20;;;;;;;9.25;4.70;;;;;;;30.38;42.93;155305.14;1662724;85;21233;-65
2022/06/13 10:21:05;;;;;;;5.87;4.67;;;;;;;30.41;43.02;155313.06;1670730;85;21462;-65
2022/06/13 10:24:12;;;;;;;8.38;4.40;;;;;;;30.43;42.79;155319.59;1652413;85;21482;-64
2022/06/13 10:27:06;;;;;;;6.72;4.42;;;;;;;30.46;42.68;155326.19;1673436;84;21100;-64
2022/06/13 10:29:54;;;;;;;11.03;4.83;;;;;;;30.46;42.70;155326.19;1632503;84;21114;-64
2022/06/13 10:32:48;;;;;;;5.12;4.50;;;;;;;30.45;42.94;155323.56;1677511;84;21000;-64
2022/06/13 10:35:39;;;;;;;6.12;4.42;;;;;;;30.50;42.47;155335.34;1677795;84;21026;-65
2022/06/13 10:38:53;;;;;;;6.70;4.30;;;;;;;30.50;43.87;155336.69;1642228;86;21040;-58
2022/06/13 10:41:23;;;;;;;4.72;4.00;;;;;;;30.59;44.67;155360.31;1667654;83;21139;-58
2022/06/13 10:43:50;;;;;;;6.20;4.58;;;;;;;30.75;44.44;155399.81;1676051;84;21048;-58
2022/06/13 10:46:17;;;;;;;9.20;4.20;;;;;;;30.82;43.97;155416.89;1634757;86;22247;-58
2022/06/13 10:49:16;;;;;;;6.03;3.90;;;;;;;30.76;43.44;155402.44;1636245;86;21096;-58
2022/06/13 10:51:42;;;;;;;6.53;4.37;;;;;;;30.71;43.07;155389.30;1635407;86;21578;-58
2022/06/13 10:54:33;;;;;;;4.42;4.00;;;;;;;30.71;42.38;155389.30;1635916;87;21012;-58
2022/06/13 10:57:09;;;;;;;7.87;4.05;;;;;;;30.69;43.26;155385.34;1632024;86;20980;-58
2022/06/13 10:59:38;;;;;;;4.90;4.40;;;;;;;30.72;42.79;155393.22;1637448;86;21724;-57
2022/06/13 11:02:18;;;;;;;5.72;4.50;;;;;;;30.72;42.25;155391.94;1671741;85;21042;-58
2022/06/13 11:04:46;;;;;;;5.53;4.20;;;;;;;30.68;41.75;155381.42;1665835;85;21069;-58
2022/06/13 11:07:16;;;;;;;6.50;4.10;;;;;;;30.58;41.79;155357.69;1618501;85;21391;-57
2022/06/13 11:09:57;;;;;;;7.15;4.37;;;;;;;30.61;41.79;155364.33;1638008;85;20955;-57
2022/06/13 11:12:29;;;;;;;5.67;3.85;;;;;;;30.65;41.14;155373.55;1638517;86;21296;-59
2022/06/13 11:23:57;;;;;;;7.17;3.85;;;;;;;30.70;40.61;155386.67;1627980;87;21087;-59
2022/06/13 11:29:15;;;;;;;6.08;3.77;;;;;;;30.73;40.58;155395.89;1589362;89;21077;-59
2022/06/13 11:31:53;;;;;;;4.87;3.70;;;;;;;30.77;40.59;155405.06;1626277;87;21104;-58
2022/06/13 11:34:37;;;;;;;8.45;3.87;;;;;;;30.84;40.47;155423.48;1629767;86;21002;-58
2022/06/13 11:37:15;;;;;;;4.33;3.75;;;;;;;30.86;40.90;155428.73;1621898;87;21092;-57
2022/06/13 11:39:46;;;;;;;4.10;3.47;;;;;;;30.84;40.54;155423.48;1606583;88;21918;-58
2022/06/13 11:42:28;;;;;;;5.87;3.70;;;;;;;30.84;39.97;155422.16;1626043;86;21038;-58
2022/06/13 11:44:59;;;;;;;4.92;3.85;;;;;;;30.86;39.77;155428.73;1624943;86;21119;-58
2022/06/13 11:47:26;;;;;;;4.00;3.60;;;;;;;30.97;40.08;155456.34;1614818;88;21180;-59
2022/06/13 11:49:56;;;;;;;5.17;4.10;;;;;;;31.07;39.32;155479.97;1612460;87;21108;-58
2022/06/13 11:55:18;;;;;;;4.65;3.80;;;;;;;31.01;39.40;155465.50;1595239;87;21574;-58
2022/06/13 11:57:52;;;;;;;3.83;3.42;;;;;;;30.96;38.92;155453.72;1627099;85;21134;-59
2022/06/13 12:00:26;;;;;;;5.08;3.60;;;;;;;30.91;38.80;155439.25;1609389;87;21568;-58
2022/06/13 12:02:59;;;;;;;5.65;4.03;;;;;;;30.82;38.89;155416.89;1605507;87;21582;-59
2022/06/13 12:05:31;;;;;;;3.95;3.58;;;;;;;30.77;39.30;155405.06;1611631;88;21338;-57
2022/06/13 12:08:10;;;;;;;4.87;3.35;;;;;;;30.76;39.79;155402.44;1607201;86;21502;-58
2022/06/13 12:10:45;;;;;;;3.70;3.20;;;;;;;30.82;39.20;155416.89;1625948;87;21038;-58
2022/06/13 12:13:15;;;;;;;3.70;3.37;;;;;;;30.92;39.37;155441.88;1613871;86;21084;-58
2022/06/13 12:15:53;;;;;;;4.42;3.60;;;;;;;31.04;39.07;155473.39;1617513;86;20922;-58
2022/06/13 12:18:46;;;;;;;4.97;3.10;;;;;;;31.19;38.94;155511.53;1620217;86;21085;-58
2022/06/13 12:21:27;;;;;;;4.28;3.50;;;;;;;31.23;38.69;155522.09;1626783;86;21032;-59
2022/06/13 12:24:19;;;;;;;5.40;3.50;;;;;;;31.22;40.22;155518.13;1620006;88;21086;-58
2022/06/13 12:27:11;;;;;;;7.15;4.10;;;;;;;31.23;40.25;155520.75;1615239;88;21159;-58
2022/06/13 12:30:05;;;;;;;8.58;3.70;;;;;;;31.26;42.07;155528.64;1610006;87;21018;-58